createdAt,value
2022-11-08T00:01:37.867Z,9.54
2022-11-08T00:04:26.837Z,9.63
2022-11-08T00:07:32.943Z,9.56
2022-11-08T00:10:38.940Z,9.66
2022-11-08T00:13:46.406Z,9.69
2022-11-08T00:16:34.858Z,9.53
2022-11-08T00:19:23.284Z,9.51
2022-11-08T00:22:12.330Z,9.48
2022-11-08T00:25:00.777Z,9.42
2022-11-08T00:27:49.266Z,9.22
2022-11-08T00:30:39.034Z,9.26
2022-11-08T00:33:27.479Z,9.24
2022-11-08T00:36:15.976Z,9.16
2022-11-08T00:39:04.594Z,9.29
2022-11-08T00:41:53.051Z,9.21
2022-11-08T00:44:41.581Z,9.32
2022-11-08T00:47:31.339Z,9.38
2022-11-08T00:50:19.791Z,9.38
2022-11-08T00:53:08.322Z,9.50
2022-11-08T00:56:00.611Z,9.46
2022-11-08T00:58:49.032Z,9.22
2022-11-08T01:01:37.603Z,9.53
2022-11-08T01:04:27.442Z,9.46
2022-11-08T01:07:15.857Z,9.51
2022-11-08T01:10:04.594Z,9.47
2022-11-08T01:12:53.049Z,9.34
2022-11-08T01:15:42.930Z,9.22
2022-11-08T01:18:31.412Z,9.36
2022-11-08T01:21:21.585Z,9.45
2022-11-08T01:24:10.218Z,9.45
2022-11-08T01:26:58.749Z,9.42
2022-11-08T01:29:47.168Z,9.50
2022-11-08T01:32:35.603Z,9.53
2022-11-08T01:35:24.207Z,9.51
2022-11-08T01:38:14.174Z,9.48
2022-11-08T01:41:02.648Z,9.52
2022-11-08T01:43:52.299Z,9.52
2022-11-08T01:46:43.166Z,9.54
2022-11-08T01:49:38.769Z,9.43
2022-11-08T01:52:33.033Z,9.49
2022-11-08T01:55:24.795Z,9.54
2022-11-08T01:58:16.546Z,9.26
2022-11-08T02:01:05.491Z,9.56
2022-11-08T02:03:54.095Z,9.58
2022-11-08T02:06:43.610Z,9.53
2022-11-08T02:09:32.517Z,9.47
2022-11-08T02:12:22.932Z,9.21
2022-11-08T02:15:12.041Z,9.31
2022-11-08T02:18:00.633Z,9.25
2022-11-08T02:20:54.236Z,9.11
2022-11-08T02:23:47.369Z,9.21
2022-11-08T02:26:36.649Z,9.15
2022-11-08T02:29:30.748Z,8.87
2022-11-08T02:32:19.204Z,8.64
2022-11-08T02:35:11.565Z,8.81
2022-11-08T02:38:00.002Z,8.50
2022-11-08T02:40:51.678Z,8.45
2022-11-08T02:43:40.156Z,8.51
2022-11-08T02:46:28.605Z,8.43
2022-11-08T02:49:17.032Z,8.33
2022-11-08T02:52:06.022Z,8.45
2022-11-08T02:54:54.462Z,8.43
2022-11-08T02:57:44.248Z,8.41
2022-11-08T03:00:32.693Z,8.40
2022-11-08T03:03:21.129Z,8.47
2022-11-08T03:06:09.626Z,8.36
2022-11-08T03:08:58.031Z,8.31
2022-11-08T03:11:46.618Z,8.21
2022-11-08T03:14:36.366Z,8.16
2022-11-08T03:17:24.781Z,8.07
2022-11-08T03:20:13.284Z,7.92
2022-11-08T03:23:02.831Z,7.79
2022-11-08T03:25:51.294Z,7.69
2022-11-08T03:28:39.731Z,7.59
2022-11-08T03:31:29.510Z,7.54
2022-11-08T03:34:18.027Z,7.43
2022-11-08T03:37:07.054Z,7.24
2022-11-08T03:39:55.555Z,7.38
2022-11-08T03:42:43.981Z,7.34
2022-11-08T03:45:32.432Z,7.27
2022-11-08T03:48:23.466Z,7.11
2022-11-08T03:51:11.905Z,7.11
2022-11-08T03:54:00.322Z,7.12
2022-11-08T03:56:48.746Z,6.99
2022-11-08T03:59:37.178Z,6.98
2022-11-08T04:02:25.903Z,6.93
2022-11-08T04:05:16.195Z,6.90
2022-11-08T04:08:06.358Z,6.91
2022-11-08T04:10:55.544Z,6.89
2022-11-08T04:14:01.273Z,6.84
2022-11-08T04:16:49.759Z,6.79
2022-11-08T04:19:56.061Z,6.68
2022-11-08T04:22:45.808Z,6.64
2022-11-08T04:25:35.307Z,6.57
2022-11-08T04:28:26.080Z,6.64
2022-11-08T04:31:16.635Z,6.63
2022-11-08T04:34:05.082Z,6.53
2022-11-08T04:36:53.495Z,6.51
2022-11-08T04:39:43.241Z,6.47
2022-11-08T04:42:31.634Z,6.48
2022-11-08T04:45:20.046Z,6.48
2022-11-08T04:48:08.494Z,6.43
2022-11-08T04:50:57.483Z,6.44
2022-11-08T04:53:46.377Z,6.41
2022-11-08T04:56:36.167Z,6.41
2022-11-08T04:59:24.598Z,6.32
2022-11-08T05:02:13.168Z,6.28
2022-11-08T05:05:01.655Z,6.24
2022-11-08T05:07:50.145Z,6.20
2022-11-08T05:10:38.549Z,6.20
2022-11-08T05:13:28.312Z,6.16
2022-11-08T05:16:18.369Z,6.06
2022-11-08T05:19:11.975Z,6.12
2022-11-08T05:22:18.800Z,5.97
2022-11-08T05:25:07.933Z,6.04
2022-11-08T05:27:56.362Z,5.95
2022-11-08T05:30:46.144Z,5.94
2022-11-08T05:33:34.651Z,5.94
2022-11-08T05:36:23.140Z,6.02
2022-11-08T05:39:11.526Z,5.97
2022-11-08T05:41:59.957Z,5.79
2022-11-08T05:44:48.403Z,5.87
2022-11-08T05:47:38.396Z,5.90
2022-11-08T05:50:26.848Z,5.94
2022-11-08T05:53:15.496Z,6.05
2022-11-08T05:56:05.031Z,6.02
2022-11-08T05:58:53.503Z,5.95
2022-11-08T06:01:42.034Z,5.90
2022-11-08T06:04:32.138Z,5.81
2022-11-08T06:07:20.599Z,5.69
2022-11-08T06:10:10.134Z,5.84
2022-11-08T06:13:00.183Z,6.00
2022-11-08T06:15:48.643Z,5.81
2022-11-08T06:18:37.312Z,5.93
2022-11-08T06:21:27.315Z,5.93
2022-11-08T06:24:16.410Z,6.01
2022-11-08T06:27:05.128Z,5.22
2022-11-08T06:29:53.675Z,5.90
2022-11-08T06:32:42.166Z,5.83
2022-11-08T06:35:30.730Z,5.81
2022-11-08T06:38:20.618Z,5.83
2022-11-08T06:41:10.180Z,5.89
2022-11-08T06:43:58.618Z,5.98
2022-11-08T06:46:47.154Z,6.28
2022-11-08T06:49:37.067Z,6.62
2022-11-08T06:52:25.512Z,6.97
2022-11-08T06:55:15.630Z,7.26
2022-11-08T06:58:04.679Z,7.39
2022-11-08T07:00:53.150Z,7.28
2022-11-08T07:03:41.676Z,7.14
2022-11-08T07:06:31.246Z,7.09
2022-11-08T07:09:19.844Z,6.57
2022-11-08T07:12:09.867Z,6.88
2022-11-08T07:14:58.363Z,6.89
2022-11-08T07:17:46.804Z,6.75
2022-11-08T07:20:36.159Z,5.82
2022-11-08T07:23:26.831Z,6.74
2022-11-08T07:26:15.789Z,6.74
2022-11-08T07:29:05.571Z,6.94
2022-11-08T07:31:54.015Z,7.24
2022-11-08T07:34:42.486Z,7.33
2022-11-08T07:37:32.219Z,7.65
2022-11-08T07:40:20.824Z,7.85
2022-11-08T07:43:12.187Z,7.96
2022-11-08T07:46:03.570Z,8.05
2022-11-08T07:48:52.024Z,8.08
2022-11-08T07:51:40.487Z,8.01
2022-11-08T07:54:28.895Z,8.04
2022-11-08T07:57:17.342Z,8.08
2022-11-08T08:00:07.955Z,8.08
2022-11-08T08:03:00.167Z,7.80
2022-11-08T08:05:59.580Z,8.06
2022-11-08T08:08:49.099Z,8.09
2022-11-08T08:11:37.545Z,8.22
2022-11-08T08:14:26.007Z,8.21
2022-11-08T08:17:14.508Z,8.04
2022-11-08T08:20:04.498Z,8.18
2022-11-08T08:22:53.132Z,8.19
2022-11-08T08:25:41.583Z,8.25
2022-11-08T08:28:30.036Z,8.33
2022-11-08T08:31:18.479Z,8.48
2022-11-08T08:34:06.954Z,8.55
2022-11-08T08:36:56.731Z,8.63
2022-11-08T08:39:45.258Z,8.89
2022-11-08T08:42:34.016Z,8.98
2022-11-08T08:45:23.056Z,9.08
2022-11-08T08:48:11.510Z,9.24
2022-11-08T08:51:00.077Z,9.44
2022-11-08T08:53:49.893Z,9.48
2022-11-08T08:56:38.339Z,9.53
2022-11-08T09:02:39.796Z,9.68
2022-11-08T09:05:31.662Z,9.78
2022-11-08T09:08:20.153Z,10.06
2022-11-08T09:11:10.322Z,10.15
2022-11-08T09:13:58.773Z,10.18
2022-11-08T09:16:47.194Z,10.42
2022-11-08T09:19:35.658Z,10.64
2022-11-08T09:22:24.336Z,10.90
2022-11-08T09:25:12.820Z,11.27
2022-11-08T09:28:02.644Z,11.52
2022-11-08T09:30:51.101Z,11.62
2022-11-08T09:33:40.763Z,11.89
2022-11-08T09:36:29.259Z,12.03
2022-11-08T09:39:17.746Z,12.19
2022-11-08T09:42:27.295Z,12.62
2022-11-08T09:45:33.383Z,12.72
2022-11-08T09:48:26.233Z,13.17
2022-11-08T09:51:16.934Z,13.63
2022-11-08T09:54:06.742Z,13.98
2022-11-08T09:56:56.204Z,14.33
2022-11-08T09:59:47.206Z,14.25
2022-11-08T10:02:37.946Z,14.46
2022-11-08T10:05:34.848Z,14.32
2022-11-08T10:08:28.657Z,14.35
2022-11-08T10:11:40.162Z,14.49
2022-11-08T10:14:49.040Z,14.46
2022-11-08T10:17:53.212Z,14.75
2022-11-08T10:20:49.798Z,14.83
2022-11-08T10:23:44.674Z,14.96
2022-11-08T10:26:36.530Z,14.97
2022-11-08T10:29:28.964Z,15.19
2022-11-08T10:32:21.444Z,15.11
2022-11-08T10:35:28.467Z,15.15
2022-11-08T10:38:19.857Z,15.41
2022-11-08T10:41:14.216Z,15.59
2022-11-08T10:44:06.052Z,15.66
2022-11-08T10:46:59.900Z,15.63
2022-11-08T10:49:48.398Z,15.92
2022-11-08T10:52:41.518Z,15.95
2022-11-08T10:55:33.470Z,15.96
2022-11-08T10:58:34.051Z,16.27
2022-11-08T11:01:24.335Z,16.27
2022-11-08T11:04:26.952Z,16.50
2022-11-08T11:07:33.595Z,16.40
2022-11-08T11:10:26.698Z,16.69
2022-11-08T11:13:20.285Z,16.85
2022-11-08T11:16:13.575Z,16.97
2022-11-08T11:19:02.901Z,16.93
2022-11-08T11:21:56.433Z,16.62
2022-11-08T11:24:48.898Z,16.51
2022-11-08T11:27:39.174Z,16.24
2022-11-08T11:30:32.800Z,16.00
2022-11-08T11:33:24.737Z,15.83
2022-11-08T11:36:17.027Z,15.68
2022-11-08T11:39:11.636Z,15.52
2022-11-08T11:42:23.857Z,15.55
2022-11-08T11:45:19.098Z,15.50
2022-11-08T11:48:13.852Z,15.48
2022-11-08T11:51:03.031Z,15.48
2022-11-08T11:53:51.546Z,15.52
2022-11-08T11:56:47.052Z,15.53
2022-11-08T11:59:54.253Z,15.61
2022-11-08T12:03:30.046Z,15.64
2022-11-08T12:06:29.711Z,15.68
2022-11-08T12:09:33.437Z,15.72
2022-11-08T12:12:29.297Z,15.63
2022-11-08T12:15:23.669Z,15.78
2022-11-08T12:18:41.950Z,15.79
2022-11-08T12:21:39.007Z,15.83
2022-11-08T12:24:35.963Z,15.84
2022-11-08T12:27:33.233Z,15.79
2022-11-08T12:30:25.175Z,15.75
2022-11-08T12:33:28.269Z,15.85
2022-11-08T12:36:22.446Z,15.88
2022-11-08T12:39:23.473Z,15.93
2022-11-08T12:42:26.819Z,15.90
2022-11-08T12:45:39.822Z,15.90
2022-11-08T12:48:37.773Z,15.88
2022-11-08T12:51:30.843Z,15.93
2022-11-08T12:54:25.930Z,15.93
2022-11-08T12:57:17.396Z,15.93
2022-11-08T13:00:08.520Z,15.94
2022-11-08T13:03:03.238Z,15.99
2022-11-08T13:05:56.725Z,16.06
2022-11-08T13:08:50.851Z,15.88
2022-11-08T13:11:47.760Z,16.04
2022-11-08T13:14:41.094Z,16.07
2022-11-08T13:17:30.668Z,16.04
2022-11-08T13:20:43.434Z,15.96
2022-11-08T13:23:33.065Z,15.93
2022-11-08T13:26:22.445Z,15.20
2022-11-08T13:29:22.629Z,15.96
2022-11-08T13:32:19.074Z,15.91
2022-11-08T13:35:13.359Z,15.74
2022-11-08T13:38:08.860Z,15.87
2022-11-08T13:41:13.113Z,15.83
2022-11-08T13:44:01.559Z,15.79
2022-11-08T13:46:51.437Z,15.78
2022-11-08T13:49:39.910Z,15.77
2022-11-08T13:53:02.508Z,15.80
2022-11-08T13:55:52.521Z,15.81
2022-11-08T13:58:42.247Z,15.81
2022-11-08T14:02:00.626Z,15.80
2022-11-08T14:04:49.155Z,15.86
2022-11-08T14:07:41.728Z,15.87
2022-11-08T14:10:36.325Z,15.81
2022-11-08T14:13:27.361Z,15.81
2022-11-08T14:16:17.623Z,15.78
2022-11-08T14:19:22.294Z,16.04
2022-11-08T14:22:17.177Z,15.98
2022-11-08T14:25:15.337Z,15.85
2022-11-08T14:28:03.898Z,15.94
2022-11-08T14:30:52.642Z,15.93
2022-11-08T14:33:42.777Z,15.78
2022-11-08T14:36:33.224Z,15.80
2022-11-08T14:39:26.891Z,14.33
2022-11-08T14:42:21.087Z,15.73
2022-11-08T14:45:14.247Z,15.70
2022-11-08T14:48:04.455Z,15.67
2022-11-08T14:50:59.396Z,15.72
2022-11-08T14:53:50.594Z,15.62
2022-11-08T14:56:39.569Z,15.44
2022-11-08T14:59:28.016Z,15.52
2022-11-08T15:02:16.439Z,15.44
2022-11-08T15:05:05.546Z,15.34
2022-11-08T15:07:54.082Z,15.31
2022-11-08T15:10:54.886Z,15.23
2022-11-08T15:13:45.190Z,15.16
2022-11-08T15:16:41.573Z,15.12
2022-11-08T15:19:33.814Z,15.05
2022-11-08T15:22:25.148Z,15.01
2022-11-08T15:25:23.298Z,14.98
2022-11-08T15:28:21.441Z,14.91
2022-11-08T15:31:14.467Z,14.77
2022-11-08T15:34:03.149Z,14.11
2022-11-08T15:36:51.646Z,14.58
2022-11-08T15:39:40.822Z,14.54
2022-11-08T15:42:29.425Z,14.46
2022-11-08T15:45:28.734Z,14.39
2022-11-08T15:48:22.773Z,14.27
2022-11-08T15:51:11.228Z,14.21
2022-11-08T15:53:59.787Z,14.11
2022-11-08T15:56:48.865Z,14.00
2022-11-08T15:59:37.567Z,13.87
2022-11-08T16:02:27.333Z,13.91
2022-11-08T16:05:17.215Z,13.82
2022-11-08T16:08:06.235Z,13.79
2022-11-08T16:10:56.071Z,13.72
2022-11-08T16:13:44.511Z,13.61
2022-11-08T16:16:35.283Z,12.78
2022-11-08T16:19:26.101Z,13.53
2022-11-08T16:22:19.045Z,13.50
2022-11-08T16:25:08.747Z,13.41
2022-11-08T16:27:58.975Z,13.50
2022-11-08T16:30:47.975Z,13.38
2022-11-08T16:33:36.826Z,13.20
2022-11-08T16:36:28.027Z,13.16
2022-11-08T16:39:17.471Z,13.22
2022-11-08T16:42:06.319Z,13.38
2022-11-08T16:44:54.877Z,13.29
2022-11-08T16:47:45.782Z,13.20
2022-11-08T16:50:34.276Z,13.16
2022-11-08T16:53:25.668Z,13.09
2022-11-08T16:56:14.382Z,13.12
2022-11-08T16:59:02.791Z,13.08
2022-11-08T17:01:51.343Z,13.07
2022-11-08T17:04:39.798Z,13.03
2022-11-08T17:07:29.189Z,12.97
2022-11-08T17:10:21.448Z,12.83
2022-11-08T17:13:11.575Z,12.86
2022-11-08T17:16:01.413Z,12.71
2022-11-08T17:18:52.945Z,12.79
2022-11-08T17:21:45.895Z,12.70
2022-11-08T17:24:34.516Z,12.59
2022-11-08T17:27:24.411Z,12.46
2022-11-08T17:30:14.486Z,12.41
2022-11-08T17:33:03.009Z,12.32
2022-11-08T17:35:52.018Z,12.36
2022-11-08T17:38:42.406Z,12.34
2022-11-08T17:41:31.096Z,12.34
2022-11-08T17:44:20.972Z,12.27
2022-11-08T17:47:09.438Z,12.22
2022-11-08T17:49:57.906Z,12.20
2022-11-08T17:52:46.486Z,12.21
2022-11-08T17:55:34.962Z,12.22
2022-11-08T17:58:24.062Z,12.16
2022-11-08T18:01:15.938Z,12.11
2022-11-08T18:04:05.014Z,11.97
2022-11-08T18:06:53.634Z,12.03
2022-11-08T18:09:42.331Z,11.14
2022-11-08T18:12:30.866Z,12.03
2022-11-08T18:15:19.427Z,11.90
2022-11-08T18:18:09.404Z,11.94
2022-11-08T18:20:57.889Z,11.91
2022-11-08T18:23:47.614Z,11.95
2022-11-08T18:26:36.105Z,11.91
2022-11-08T18:29:24.738Z,11.93
2022-11-08T18:32:13.215Z,11.15
2022-11-08T18:35:03.046Z,12.03
2022-11-08T18:37:51.479Z,11.99
2022-11-08T18:40:40.114Z,12.05
2022-11-08T18:43:28.624Z,12.01
2022-11-08T18:46:18.877Z,12.03
2022-11-08T18:49:07.470Z,12.05
2022-11-08T18:51:57.534Z,12.06
2022-11-08T18:54:47.355Z,12.06
2022-11-08T18:57:35.782Z,12.02
2022-11-08T19:00:24.283Z,12.06
2022-11-08T19:03:12.922Z,11.90
2022-11-08T19:06:01.598Z,11.77
2022-11-08T19:08:51.431Z,11.94
2022-11-08T19:11:39.961Z,11.93
2022-11-08T19:14:28.463Z,11.93
2022-11-08T19:17:17.104Z,11.91
2022-11-08T19:20:06.682Z,10.84
2022-11-08T19:22:55.653Z,11.60
2022-11-08T19:25:45.518Z,11.86
2022-11-08T19:28:34.970Z,11.76
2022-11-08T19:31:25.000Z,11.81
2022-11-08T19:34:13.715Z,11.75
2022-11-08T19:37:02.272Z,11.18
2022-11-08T19:39:50.718Z,11.88
2022-11-08T19:42:40.544Z,11.88
2022-11-08T19:45:29.054Z,11.92
2022-11-08T19:48:17.934Z,11.97
2022-11-08T19:51:08.499Z,12.00
2022-11-08T19:53:58.726Z,11.87
2022-11-08T19:57:04.871Z,11.96
2022-11-08T19:59:55.629Z,11.92
2022-11-08T20:02:44.155Z,11.81
2022-11-08T20:05:32.677Z,11.81
2022-11-08T20:08:22.028Z,11.83
2022-11-08T20:11:13.411Z,11.84
2022-11-08T20:14:02.946Z,11.88
2022-11-08T20:16:54.172Z,11.75
2022-11-08T20:19:42.712Z,11.85
2022-11-08T20:22:31.529Z,11.86
2022-11-08T20:25:20.058Z,11.76
2022-11-08T20:28:08.739Z,11.82
2022-11-08T20:31:02.460Z,11.80
2022-11-08T20:33:53.583Z,11.77
2022-11-08T20:36:44.043Z,11.78
2022-11-08T20:39:33.564Z,11.77
2022-11-08T20:42:23.579Z,11.73
2022-11-08T20:45:14.909Z,11.68
2022-11-08T20:48:03.856Z,11.71
2022-11-08T20:50:57.760Z,11.72
2022-11-08T20:53:46.416Z,11.68
2022-11-08T20:56:34.916Z,11.72
2022-11-08T20:59:23.472Z,11.73
2022-11-08T21:02:12.817Z,11.67
2022-11-08T21:05:01.359Z,11.66
2022-11-08T21:08:56.959Z,11.65
2022-11-08T21:11:00.293Z,11.68
2022-11-08T21:13:48.793Z,11.67
2022-11-08T21:17:06.714Z,11.68
2022-11-08T21:19:48.231Z,11.69
2022-11-08T21:22:36.701Z,11.55
2022-11-08T21:25:26.525Z,11.71
2022-11-08T21:28:15.055Z,11.59
2022-11-08T21:31:03.705Z,11.76
2022-11-08T21:33:52.198Z,11.70
2022-11-08T21:36:40.660Z,11.58
2022-11-08T21:39:29.129Z,11.74
2022-11-08T21:42:18.923Z,11.73
2022-11-08T21:45:08.935Z,11.82
2022-11-08T21:47:57.392Z,11.77
2022-11-08T21:50:45.830Z,11.47
2022-11-08T21:53:34.323Z,11.60
2022-11-08T21:56:23.111Z,11.30
2022-11-08T21:59:13.158Z,11.72
2022-11-08T22:02:01.666Z,11.75
2022-11-08T22:04:50.145Z,11.71
2022-11-08T22:07:38.843Z,11.68
2022-11-08T22:10:27.327Z,11.66
2022-11-08T22:13:15.811Z,11.66
2022-11-08T22:16:06.263Z,11.65
2022-11-08T22:19:10.325Z,11.56
2022-11-08T22:21:59.398Z,11.67
2022-11-08T22:24:48.370Z,11.75
2022-11-08T22:27:36.878Z,11.62
2022-11-08T22:30:25.346Z,11.57
2022-11-08T22:33:15.219Z,11.91
2022-11-08T22:36:03.673Z,11.78
2022-11-08T22:38:52.114Z,11.89
2022-11-08T22:41:40.592Z,11.83
2022-11-08T22:44:29.264Z,11.72
2022-11-08T22:47:17.734Z,11.53
2022-11-08T22:50:08.549Z,11.63
2022-11-08T22:52:57.019Z,11.65
2022-11-08T22:55:45.718Z,11.72
2022-11-08T22:58:34.525Z,11.71
2022-11-08T23:01:23.007Z,11.55
2022-11-08T23:04:11.641Z,11.49
2022-11-08T23:07:01.461Z,11.61
2022-11-08T23:09:49.946Z,11.62
2022-11-08T23:12:56.003Z,11.54
2022-11-08T23:16:02.052Z,11.84
2022-11-08T23:19:04.414Z,11.90
2022-11-08T23:22:10.986Z,11.86
2022-11-08T23:25:01.014Z,11.91
2022-11-08T23:28:08.555Z,11.98
2022-11-08T23:31:14.420Z,12.14
2022-11-08T23:34:03.206Z,12.25
2022-11-08T23:36:51.671Z,12.30
2022-11-08T23:40:00.301Z,12.19
2022-11-08T23:43:07.719Z,12.12
2022-11-08T23:45:56.556Z,12.15
2022-11-08T23:48:44.983Z,12.10
2022-11-08T23:51:33.549Z,12.09
2022-11-08T23:54:22.034Z,12.14
2022-11-08T23:57:10.515Z,12.10
